Time;durP1;ratioP1;P1;durP2;ratioP2;P2;SDS_P1;SDS_P2;PMS_P1;PMS_P2;Temp;Humidity;BMP_temperature;BMP_pressure;BME280_temperature;BME280_humidity;BME280_pressure;Samples;Min_cycle;Max_cycle;Signal;HPM_P1;HPM_P2
2021/03/17 00:02:24;;;;;;;6.10;3.57;;;12.70;40.60;;;;;;5098287;28;20547;-89
2021/03/17 00:04:50;;;;;;;5.70;3.90;;;12.70;40.10;;;;;;5098999;28;20443;-87
2021/03/17 00:07:18;;;;;;;3.90;3.60;;;12.50;39.60;;;;;;5096714;28;20448;-88
2021/03/17 00:09:44;;;;;;;5.20;4.07;;;12.40;41.00;;;;;;5090506;28;20520;-89
2021/03/17 00:12:11;;;;;;;4.07;3.10;;;12.20;42.60;;;;;;5089869;28;20456;-88
2021/03/17 00:14:37;;;;;;;6.90;3.80;;;12.60;40.00;;;;;;5098949;28;20458;-88
2021/03/17 00:17:04;;;;;;;5.20;3.60;;;12.60;42.30;;;;;;5099054;28;20465;-88
2021/03/17 00:19:31;;;;;;;8.33;3.73;;;12.70;42.00;;;;;;5099053;28;21161;-87
2021/03/17 00:21:58;;;;;;;3.30;3.07;;;12.70;40.50;;;;;;5099263;28;20463;-88
2021/03/17 00:24:24;;;;;;;5.03;3.60;;;12.60;40.20;;;;;;5096288;28;20475;-88
2021/03/17 00:26:51;;;;;;;4.93;3.30;;;12.90;41.30;;;;;;5082734;28;21009;-89
2021/03/17 00:29:17;;;;;;;4.47;3.10;;;13.20;42.00;;;;;;5077240;28;20485;-89
2021/03/17 00:31:44;;;;;;;3.93;3.00;;;13.30;41.50;;;;;;5076979;28;20464;-89
2021/03/17 00:34:10;;;;;;;3.47;3.33;;;13.50;41.20;;;;;;5077627;28;20436;-89
2021/03/17 00:36:38;;;;;;;4.67;2.90;;;13.70;40.60;;;;;;5087105;28;20476;-88
2021/03/17 00:39:04;;;;;;;5.30;2.97;;;13.70;40.90;;;;;;5079374;28;20489;-89
2021/03/17 00:41:31;;;;;;;6.40;3.80;;;13.80;38.90;;;;;;5078581;28;20471;-89
2021/03/17 00:43:57;;;;;;;4.27;3.20;;;13.40;39.20;;;;;;5076021;28;20608;-89
2021/03/17 00:46:24;;;;;;;3.43;2.83;;;12.70;39.60;;;;;;5077033;28;20533;-89
2021/03/17 00:48:50;;;;;;;3.77;3.40;;;12.80;42.10;;;;;;5077153;28;20472;-89
2021/03/17 00:51:17;;;;;;;4.30;3.00;;;12.80;39.70;;;;;;5076852;28;20457;-89
2021/03/17 00:53:44;;;;;;;7.50;4.40;;;12.10;42.50;;;;;;5077246;28;20435;-89
2021/03/17 00:56:11;;;;;;;5.10;3.60;;;12.00;42.50;;;;;;5076643;28;20504;-89
2021/03/17 00:58:37;;;;;;;5.30;3.50;;;11.70;41.80;;;;;;5093503;28;20438;-88
2021/03/17 01:01:04;;;;;;;3.53;3.10;;;11.20;43.60;;;;;;5097896;28;20448;-88
2021/03/17 01:03:31;;;;;;;5.97;3.83;;;11.00;44.50;;;;;;5097958;28;20505;-88
2021/03/17 01:05:59;;;;;;;5.40;3.47;;;10.80;44.40;;;;;;5098020;28;20459;-88
2021/03/17 01:08:26;;;;;;;4.23;3.20;;;10.60;44.60;;;;;;5098177;28;20448;-89
2021/03/17 01:10:55;;;;;;;5.30;3.73;;;10.80;45.30;;;;;;5084567;28;20410;-89
2021/03/17 01:13:22;;;;;;;5.03;3.40;;;11.00;45.00;;;;;;5077187;28;20464;-88
2021/03/17 01:15:48;;;;;;;6.63;4.10;;;11.10;43.80;;;;;;5077047;28;20472;-89
2021/03/17 01:18:14;;;;;;;5.10;3.10;;;10.90;43.10;;;;;;5076812;28;20443;-88
2021/03/17 01:20:41;;;;;;;4.90;3.63;;;10.80;44.70;;;;;;5076972;28;20433;-89
2021/03/17 01:23:08;;;;;;;6.17;4.03;;;10.70;44.80;;;;;;5076098;28;20597;-89
2021/03/17 01:25:36;;;;;;;6.50;3.87;;;10.20;44.40;;;;;;5075482;28;20435;-89
2021/03/17 01:28:06;;;;;;;12.90;4.47;;;10.30;45.10;;;;;;5075699;28;20997;-89
2021/03/17 01:30:35;;;;;;;3.93;3.10;;;10.40;46.30;;;;;;5075686;28;20475;-89
2021/03/17 01:33:02;;;;;;;5.23;3.93;;;10.50;47.00;;;;;;5075040;28;20529;-88
2021/03/17 01:35:28;;;;;;;4.07;3.40;;;10.80;45.60;;;;;;5075370;28;20889;-89
2021/03/17 01:37:55;;;;;;;4.03;3.50;;;11.10;45.10;;;;;;5075293;28;20447;-89
2021/03/17 01:40:23;;;;;;;4.73;4.23;;;11.40;44.70;;;;;;5075939;28;20466;-90
2021/03/17 01:42:50;;;;;;;4.93;3.53;;;11.60;42.80;;;;;;5075087;28;20471;-89
2021/03/17 01:45:18;;;;;;;3.63;3.20;;;11.70;43.80;;;;;;5075361;28;20811;-89
2021/03/17 01:47:46;;;;;;;6.53;3.80;;;12.30;44.10;;;;;;5075233;28;20466;-89
2021/03/17 01:50:17;;;;;;;4.60;3.30;;;12.60;42.80;;;;;;5074840;28;20449;-89
2021/03/17 01:52:44;;;;;;;3.80;3.10;;;12.90;43.10;;;;;;5075119;28;20808;-89
2021/03/17 01:55:11;;;;;;;5.53;3.43;;;12.90;42.30;;;;;;5074792;28;20480;-89
2021/03/17 01:57:38;;;;;;;4.40;3.30;;;13.10;42.10;;;;;;5074305;28;20510;-89
2021/03/17 02:00:08;;;;;;;4.20;3.33;;;12.90;41.30;;;;;;5074524;28;20434;-89
2021/03/17 02:02:36;;;;;;;6.10;3.67;;;13.00;41.30;;;;;;5074868;28;20466;-89
2021/03/17 02:05:06;;;;;;;5.17;4.20;;;11.80;42.00;;;;;;5074488;28;20482;-88
2021/03/17 02:07:32;;;;;;;5.87;4.23;;;10.80;43.70;;;;;;5074390;28;20984;-89
2021/03/17 02:09:59;;;;;;;4.50;3.80;;;10.30;45.00;;;;;;5074164;28;20485;-88
2021/03/17 02:12:37;;;;;;;4.93;3.33;;;10.30;45.00;;;;;;5074105;28;21002;-88
2021/03/17 02:15:11;;;;;;;4.13;3.53;;;9.70;46.00;;;;;;5074373;28;20444;-89
2021/03/17 02:17:41;;;;;;;4.30;3.70;;;10.00;47.80;;;;;;5073993;28;20468;-88
2021/03/17 02:20:37;;;;;;;4.03;3.70;;;10.10;45.20;;;;;;5074644;28;20488;-88
2021/03/17 02:23:14;;;;;;;4.23;3.50;;;10.70;47.00;;;;;;5076704;28;20851;-88
2021/03/17 02:26:17;;;;;;;4.13;3.53;;;11.40;44.30;;;;;;5077998;28;20475;-89
2021/03/17 02:28:58;;;;;;;6.23;4.43;;;11.90;44.30;;;;;;5078201;28;20436;-89
2021/03/17 02:31:49;;;;;;;4.50;4.17;;;12.20;43.40;;;;;;5078889;28;20462;-88
2021/03/17 02:34:21;;;;;;;5.93;4.67;;;12.20;42.10;;;;;;5081070;28;20493;-89
2021/03/17 02:36:51;;;;;;;4.37;3.43;;;12.20;42.80;;;;;;5078085;28;20460;-89
2021/03/17 02:39:23;;;;;;;5.77;3.33;;;12.50;43.00;;;;;;5077887;28;20523;-89
2021/03/17 02:41:56;;;;;;;3.80;3.20;;;12.70;41.70;;;;;;5077239;28;20466;-89
2021/03/17 02:44:24;;;;;;;3.83;3.43;;;13.00;41.90;;;;;;5077407;28;20452;-89
2021/03/17 02:46:51;;;;;;;3.50;3.20;;;12.70;42.30;;;;;;5077628;28;20460;-89
2021/03/17 02:49:22;;;;;;;3.77;3.30;;;12.80;42.30;;;;;;5077593;28;20444;-89
2021/03/17 02:51:53;;;;;;;5.13;4.20;;;13.00;41.60;;;;;;5077335;28;20880;-89
2021/03/17 02:54:21;;;;;;;4.47;3.47;;;12.80;40.90;;;;;;5077387;28;20443;-89
2021/03/17 02:56:56;;;;;;;4.40;3.50;;;12.70;42.70;;;;;;5077354;28;20530;-88
2021/03/17 02:59:25;;;;;;;4.70;3.73;;;12.50;42.30;;;;;;5077497;28;20451;-89
2021/03/17 03:01:55;;;;;;;6.77;3.57;;;12.80;42.20;;;;;;5077892;28;20526;-89
2021/03/17 03:04:23;;;;;;;4.20;3.27;;;13.20;42.00;;;;;;5077682;28;20488;-89
2021/03/17 03:06:52;;;;;;;4.97;3.30;;;13.30;40.80;;;;;;5077637;28;20526;-89
2021/03/17 03:09:21;;;;;;;4.50;3.17;;;13.30;41.50;;;;;;5077153;28;20454;-89
2021/03/17 03:11:51;;;;;;;5.70;3.50;;;13.20;40.90;;;;;;5076934;28;20464;-89
2021/03/17 03:14:20;;;;;;;4.10;3.33;;;13.20;40.80;;;;;;5077143;28;20443;-89
2021/03/17 03:16:48;;;;;;;4.53;3.90;;;12.10;40.70;;;;;;5076777;28;21067;-89
2021/03/17 03:19:16;;;;;;;3.63;3.33;;;11.30;41.40;;;;;;5076896;28;20432;-89
2021/03/17 03:21:44;;;;;;;6.10;4.10;;;11.20;42.80;;;;;;5077004;28;20578;-89
2021/03/17 03:24:12;;;;;;;3.97;3.70;;;10.90;43.10;;;;;;5077427;28;20479;-89
2021/03/17 03:26:39;;;;;;;5.13;4.23;;;10.50;44.60;;;;;;5077094;28;20450;-89
2021/03/17 03:29:06;;;;;;;9.13;4.70;;;10.20;45.60;;;;;;5076947;28;20451;-89
2021/03/17 03:31:33;;;;;;;4.77;4.00;;;9.90;47.20;;;;;;5076754;28;20507;-89
2021/03/17 03:34:01;;;;;;;4.30;3.53;;;10.60;45.30;;;;;;5075744;28;20531;-89
2021/03/17 03:36:27;;;;;;;3.60;3.30;;;11.00;44.40;;;;;;5076952;28;20537;-88
2021/03/17 03:38:58;;;;;;;4.43;3.57;;;10.90;44.30;;;;;;5079078;28;20439;-89
2021/03/17 03:41:25;;;;;;;6.70;4.40;;;10.60;43.40;;;;;;5077239;28;20438;-89
2021/03/17 03:43:51;;;;;;;7.87;3.87;;;10.80;46.00;;;;;;5077774;28;20473;-89
2021/03/17 03:46:18;;;;;;;6.10;3.23;;;11.20;44.60;;;;;;5077168;28;20440;-89
2021/03/17 03:48:44;;;;;;;4.83;3.57;;;11.80;44.80;;;;;;5077495;28;20497;-89
2021/03/17 03:51:11;;;;;;;3.43;3.10;;;12.20;44.50;;;;;;5076749;28;20442;-89
2021/03/17 03:53:46;;;;;;;5.43;3.87;;;12.70;43.30;;;;;;5076710;28;20446;-89
2021/03/17 03:56:18;;;;;;;6.20;4.40;;;12.10;41.60;;;;;;5077092;28;20470;-89
2021/03/17 03:58:48;;;;;;;6.93;4.70;;;11.80;41.90;;;;;;5076577;28;20483;-89
2021/03/17 04:01:20;;;;;;;4.20;3.70;;;11.50;43.00;;;;;;5076292;28;20498;-89
2021/03/17 04:03:52;;;;;;;4.00;3.30;;;12.00;44.00;;;;;;5076648;28;20443;-89
2021/03/17 04:06:19;;;;;;;4.37;3.80;;;12.60;43.40;;;;;;5076522;28;20467;-89
2021/03/17 04:08:48;;;;;;;4.00;3.27;;;12.70;43.00;;;;;;5076100;28;20454;-88
2021/03/17 04:11:17;;;;;;;4.97;3.60;;;12.90;42.20;;;;;;5076201;28;20535;-89
2021/03/17 04:13:45;;;;;;;5.23;3.93;;;13.00;41.90;;;;;;5076143;28;20438;-88
2021/03/17 04:16:14;;;;;;;4.53;3.60;;;12.30;42.30;;;;;;5076629;28;21068;-89
2021/03/17 04:18:45;;;;;;;9.53;4.13;;;12.00;41.10;;;;;;5076128;28;20453;-89
2021/03/17 04:21:19;;;;;;;3.87;3.30;;;12.00;43.80;;;;;;5076256;28;20417;-89
2021/03/17 04:23:48;;;;;;;4.17;3.60;;;12.40;43.60;;;;;;5076198;28;20443;-88
2021/03/17 04:26:19;;;;;;;4.67;3.80;;;12.40;43.00;;;;;;5076094;28;21001;-89
2021/03/17 04:28:48;;;;;;;3.63;3.43;;;12.50;42.10;;;;;;5075891;28;20435;-89
2021/03/17 04:31:16;;;;;;;5.63;3.33;;;12.40;42.30;;;;;;5075805;28;20446;-89
2021/03/17 04:33:43;;;;;;;4.30;3.70;;;12.60;42.50;;;;;;5075800;28;20464;-89
2021/03/17 04:36:12;;;;;;;4.10;3.40;;;12.70;41.80;;;;;;5075402;28;20483;-88
2021/03/17 04:38:40;;;;;;;3.90;3.33;;;12.90;43.10;;;;;;5075608;28;20450;-89
2021/03/17 04:41:10;;;;;;;4.10;3.80;;;13.00;41.90;;;;;;5075359;28;20520;-89
2021/03/17 04:43:39;;;;;;;4.47;3.70;;;13.00;41.90;;;;;;5075830;28;20454;-88
2021/03/17 04:46:06;;;;;;;3.67;3.33;;;13.00;42.00;;;;;;5075602;28;20464;-88
2021/03/17 04:48:33;;;;;;;5.33;3.70;;;13.10;41.60;;;;;;5075521;28;20948;-89
2021/03/17 04:51:01;;;;;;;5.23;4.03;;;13.00;42.00;;;;;;5075395;28;20813;-89
2021/03/17 04:53:28;;;;;;;4.20;3.80;;;13.20;41.90;;;;;;5075278;28;21045;-88
2021/03/17 04:55:54;;;;;;;5.00;4.30;;;13.10;41.40;;;;;;5075658;28;20447;-89
2021/03/17 04:58:24;;;;;;;4.40;4.00;;;13.10;40.50;;;;;;5086690;28;20409;-89
2021/03/17 05:00:54;;;;;;;6.00;4.27;;;12.90;42.00;;;;;;5087854;28;20443;-89
2021/03/17 05:03:23;;;;;;;4.80;4.10;;;13.00;41.90;;;;;;5087718;28;20464;-89
2021/03/17 05:05:51;;;;;;;3.90;3.50;;;12.90;40.90;;;;;;5078733;28;20444;-88
2021/03/17 05:08:19;;;;;;;8.47;4.50;;;12.90;41.70;;;;;;5075290;28;20479;-89
2021/03/17 05:10:47;;;;;;;4.47;3.63;;;12.90;42.20;;;;;;5075037;28;20501;-89
2021/03/17 05:13:14;;;;;;;7.10;4.37;;;13.00;42.20;;;;;;5075024;28;20455;-89
2021/03/17 05:15:42;;;;;;;4.90;3.63;;;13.10;42.00;;;;;;5075120;28;20502;-88
2021/03/17 05:18:12;;;;;;;5.07;4.17;;;13.20;41.70;;;;;;5074504;28;20488;-88
2021/03/17 05:20:41;;;;;;;5.63;3.80;;;13.00;41.00;;;;;;5074959;28;20432;-89
2021/03/17 05:23:07;;;;;;;5.17;3.80;;;13.00;42.00;;;;;;5074900;28;20506;-89
2021/03/17 05:25:35;;;;;;;5.13;4.80;;;13.10;41.40;;;;;;5074991;28;20453;-88
2021/03/17 05:28:04;;;;;;;4.50;3.90;;;13.30;41.70;;;;;;5074911;28;20452;-89
2021/03/17 05:30:32;;;;;;;5.80;3.83;;;13.30;41.30;;;;;;5074241;28;20428;-89
2021/03/17 05:33:00;;;;;;;10.43;7.07;;;13.50;42.00;;;;;;5082577;28;20484;-89
2021/03/17 05:35:28;;;;;;;5.87;4.67;;;12.90;39.70;;;;;;5075600;28;20459;-89
2021/03/17 05:37:55;;;;;;;4.70;3.70;;;13.00;42.10;;;;;;5074319;28;20517;-89
2021/03/17 05:40:22;;;;;;;5.87;4.60;;;13.30;40.90;;;;;;5073545;28;20450;-89
2021/03/17 05:42:48;;;;;;;5.43;4.17;;;13.10;38.50;;;;;;5072555;28;20505;-89
2021/03/17 05:45:17;;;;;;;6.30;4.37;;;12.70;41.10;;;;;;5073988;28;20441;-89
2021/03/17 05:47:45;;;;;;;5.67;4.80;;;12.10;41.30;;;;;;5074393;28;20431;-89
2021/03/17 05:50:13;;;;;;;6.53;5.40;;;12.00;41.70;;;;;;5074432;28;20415;-89
2021/03/17 05:52:41;;;;;;;4.60;4.03;;;11.50;41.70;;;;;;5073805;28;20499;-89
2021/03/17 05:55:09;;;;;;;5.23;4.50;;;11.00;45.00;;;;;;5075112;28;20515;-89
2021/03/17 05:57:37;;;;;;;4.40;3.70;;;10.70;42.90;;;;;;5072960;28;21046;-89
2021/03/17 06:00:05;;;;;;;8.57;5.50;;;10.30;46.10;;;;;;5073956;28;20481;-89
2021/03/17 06:02:32;;;;;;;6.30;5.60;;;10.30;44.90;;;;;;5073917;28;20859;-89
2021/03/17 06:05:01;;;;;;;9.20;6.87;;;10.20;44.00;;;;;;5073948;28;20964;-89
2021/03/17 06:07:32;;;;;;;7.03;5.33;;;9.90;44.70;;;;;;5074013;28;20447;-89
2021/03/17 06:10:02;;;;;;;7.20;5.40;;;9.80;46.80;;;;;;5083362;28;20432;-88
2021/03/17 06:12:35;;;;;;;8.87;5.43;;;10.10;45.20;;;;;;5083843;28;20983;-89
2021/03/17 06:15:03;;;;;;;6.20;4.50;;;10.60;46.40;;;;;;5074511;28;20467;-89
2021/03/17 06:17:31;;;;;;;6.77;4.87;;;11.10;45.70;;;;;;5074662;28;20774;-89
2021/03/17 06:20:02;;;;;;;8.10;5.73;;;11.50;43.80;;;;;;5074801;28;20880;-89
2021/03/17 06:22:29;;;;;;;10.00;4.83;;;11.80;44.20;;;;;;5073603;28;20447;-89
2021/03/17 06:24:57;;;;;;;7.63;5.10;;;12.10;43.10;;;;;;5074253;28;20503;-89
2021/03/17 06:27:25;;;;;;;7.60;5.30;;;12.20;42.60;;;;;;5075342;28;20840;-89
2021/03/17 06:29:52;;;;;;;9.63;6.70;;;12.20;41.90;;;;;;5074937;28;20455;-88
2021/03/17 06:32:18;;;;;;;7.20;5.63;;;12.00;42.50;;;;;;5074207;28;20502;-88
2021/03/17 06:34:49;;;;;;;10.20;7.23;;;12.20;43.30;;;;;;5073968;28;20451;-88
2021/03/17 06:37:16;;;;;;;6.83;4.23;;;12.40;42.50;;;;;;5074483;28;20872;-89
2021/03/17 06:39:43;;;;;;;5.07;4.03;;;12.60;43.60;;;;;;5073959;28;20432;-89
2021/03/17 06:42:10;;;;;;;5.20;4.07;;;13.10;43.10;;;;;;5074921;28;20494;-90
2021/03/17 06:44:38;;;;;;;8.47;6.50;;;13.40;41.40;;;;;;5073888;28;20880;-90
2021/03/17 06:47:17;;;;;;;7.20;5.13;;;13.20;40.20;;;;;;5074173;28;20797;-90
2021/03/17 06:49:45;;;;;;;3.77;3.30;;;12.90;42.40;;;;;;5073953;28;20439;-90
2021/03/17 06:52:31;;;;;;;4.27;3.93;;;13.20;43.00;;;;;;5073489;28;21007;-89
2021/03/17 06:55:12;;;;;;;11.90;4.50;;;13.40;41.00;;;;;;5073690;28;20415;-90
2021/03/17 06:57:41;;;;;;;7.40;6.27;;;13.10;40.80;;;;;;5073463;28;20458;-90
2021/03/17 07:00:27;;;;;;;5.80;5.23;;;12.90;41.40;;;;;;5073603;28;20432;-90
2021/03/17 07:02:56;;;;;;;7.53;5.10;;;13.20;41.40;;;;;;5073496;28;20459;-90
2021/03/17 07:05:45;;;;;;;8.47;7.07;;;13.40;41.30;;;;;;5073962;28;20853;-89
2021/03/17 07:08:13;;;;;;;6.97;6.00;;;12.90;40.20;;;;;;5074381;28;20434;-90
2021/03/17 07:10:41;;;;;;;6.20;5.27;;;13.10;42.10;;;;;;5077321;28;20450;-90
2021/03/17 07:13:09;;;;;;;6.37;5.63;;;13.00;41.00;;;;;;5077286;28;21041;-90
2021/03/17 07:15:38;;;;;;;11.03;8.00;;;13.00;40.80;;;;;;5077652;28;20447;-89
2021/03/17 07:18:29;;;;;;;5.27;4.70;;;13.10;38.60;;;;;;5077530;28;20592;-89
2021/03/17 07:20:57;;;;;;;9.20;7.53;;;12.90;40.40;;;;;;5057544;28;20512;-89
2021/03/17 07:23:36;;;;;;;7.60;6.87;;;12.00;39.10;;;;;;5076819;28;20458;-89
2021/03/17 07:26:17;;;;;;;16.70;11.67;;;11.60;41.70;;;;;;5077841;28;20496;-89
2021/03/17 07:29:01;;;;;;;14.73;10.33;;;11.20;41.20;;;;;;5077145;28;20797;-89
2021/03/17 07:31:30;;;;;;;19.23;11.97;;;10.60;42.50;;;;;;5076895;28;20895;-90
2021/03/17 07:34:09;;;;;;;17.53;11.70;;;9.50;44.90;;;;;;5076635;28;20439;-90
2021/03/17 07:36:38;;;;;;;23.87;10.70;;;7.50;49.00;;;;;;5076712;28;20513;-88
2021/03/17 07:39:09;;;;;;;18.20;12.40;;;7.10;51.30;;;;;;5077298;28;20444;-88
2021/03/17 07:41:37;;;;;;;17.87;12.07;;;7.40;51.00;;;;;;5076220;28;20462;-89
2021/03/17 07:44:06;;;;;;;19.60;11.73;;;6.80;51.60;;;;;;5076998;28;20451;-88
2021/03/17 07:46:34;;;;;;;19.33;13.37;;;6.30;53.50;;;;;;5076751;28;20446;-88
2021/03/17 07:49:02;;;;;;;14.40;10.17;;;6.60;53.90;;;;;;5075705;28;20553;-88
2021/03/17 07:51:29;;;;;;;26.93;15.40;;;6.70;54.80;;;;;;5076552;28;20463;-88
2021/03/17 07:53:59;;;;;;;29.43;14.20;;;6.90;53.20;;;;;;5076517;28;20478;-88
2021/03/17 07:56:26;;;;;;;21.60;14.80;;;7.30;52.20;;;;;;5076098;28;20518;-89
2021/03/17 07:58:54;;;;;;;20.90;12.83;;;7.60;51.70;;;;;;5078273;28;20454;-89
2021/03/17 08:01:22;;;;;;;23.60;14.93;;;7.50;52.20;;;;;;5075870;28;20463;-89
2021/03/17 08:03:51;;;;;;;26.87;17.20;;;7.50;52.10;;;;;;5075891;28;20458;-89
2021/03/17 08:06:19;;;;;;;25.50;15.90;;;7.70;51.10;;;;;;5076635;28;20451;-89
2021/03/17 08:08:46;;;;;;;24.73;17.10;;;7.70;51.30;;;;;;5075666;28;20780;-89
2021/03/17 08:11:15;;;;;;;29.40;18.27;;;7.80;51.80;;;;;;5075272;28;20485;-89
2021/03/17 08:13:44;;;;;;;26.33;15.90;;;7.80;51.20;;;;;;5077040;28;20443;-89
2021/03/17 08:16:13;;;;;;;24.87;17.90;;;7.70;51.20;;;;;;5076526;28;20444;-89
2021/03/17 08:18:44;;;;;;;33.87;18.00;;;8.10;51.40;;;;;;5076646;28;20501;-90
2021/03/17 08:21:12;;;;;;;30.33;18.60;;;8.20;50.30;;;;;;5075359;28;20474;-89
2021/03/17 08:23:40;;;;;;;33.37;22.23;;;8.10;50.10;;;;;;5076059;28;20454;-89
2021/03/17 08:26:07;;;;;;;23.63;15.40;;;8.60;49.40;;;;;;5075791;28;20451;-89
2021/03/17 08:28:49;;;;;;;26.73;15.80;;;8.60;49.30;;;;;;5075301;28;20443;-89
2021/03/17 08:31:47;;;;;;;26.80;16.37;;;8.90;48.80;;;;;;5079151;28;20439;-88
2021/03/17 08:34:28;;;;;;;21.40;14.50;;;8.50;49.20;;;;;;5077755;28;20459;-89
2021/03/17 08:36:58;;;;;;;25.33;15.60;;;8.80;49.50;;;;;;5077478;28;20471;-89
2021/03/17 08:39:44;;;;;;;27.20;15.73;;;8.70;48.20;;;;;;5077782;28;20439;-89
2021/03/17 08:42:14;;;;;;;22.73;13.87;;;9.20;49.50;;;;;;5086637;28;20508;-87
2021/03/17 08:44:46;;;;;;;19.73;10.27;;;9.90;46.30;;;;;;5083028;28;20440;-89
2021/03/17 08:47:19;;;;;;;14.70;9.70;;;10.10;42.60;;;;;;5075524;28;20868;-89
2021/03/17 08:49:46;;;;;;;16.20;9.33;;;10.30;42.90;;;;;;5074973;28;20435;-90
2021/03/17 08:52:15;;;;;;;15.73;9.40;;;10.30;41.00;;;;;;5092661;28;20476;-88
2021/03/17 08:55:07;;;;;;;14.90;8.20;;;10.80;41.70;;;;;;5095742;28;20437;-89
2021/03/17 08:57:54;;;;;;;19.17;10.13;;;11.30;41.90;;;;;;5096201;28;20471;-89
2021/03/17 09:00:49;;;;;;;18.67;9.87;;;11.70;38.90;;;;;;5095370;28;20518;-89
2021/03/17 09:03:34;;;;;;;27.63;9.80;;;12.00;39.20;;;;;;5088350;28;20454;-89
2021/03/17 09:06:25;;;;;;;15.80;9.57;;;11.00;38.60;;;;;;5082549;28;20476;-89
2021/03/17 09:09:05;;;;;;;22.60;11.27;;;11.00;39.80;;;;;;5063404;28;20459;-89
2021/03/17 09:11:57;;;;;;;14.83;10.40;;;10.90;40.30;;;;;;5077995;28;20513;-89
2021/03/17 09:14:39;;;;;;;12.70;8.80;;;11.10;40.30;;;;;;5095358;28;20427;-89
2021/03/17 09:17:14;;;;;;;17.73;11.30;;;11.40;42.20;;;;;;5096187;28;20577;-88
2021/03/17 09:20:08;;;;;;;16.07;11.70;;;11.90;38.60;;;;;;5097931;28;20442;-88
2021/03/17 09:22:43;;;;;;;19.60;10.70;;;11.70;38.20;;;;;;5089522;28;21060;-89
2021/03/17 09:25:27;;;;;;;17.40;9.53;;;11.60;40.20;;;;;;5079159;28;20493;-90
2021/03/17 09:27:57;;;;;;;18.20;10.23;;;12.10;40.10;;;;;;5096234;28;20434;-86
2021/03/17 09:30:25;;;;;;;11.10;8.00;;;12.40;37.90;;;;;;5076548;28;20462;-89
2021/03/17 09:33:09;;;;;;;9.87;6.77;;;12.60;34.30;;;;;;5074247;28;20467;-89
2021/03/17 09:35:38;;;;;;;13.10;6.20;;;11.40;35.20;;;;;;5075607;28;20494;-89
2021/03/17 09:38:07;;;;;;;18.20;6.70;;;11.30;36.60;;;;;;5076197;28;20533;-89
2021/03/17 09:40:45;;;;;;;9.10;6.23;;;11.50;34.60;;;;;;5077999;28;20457;-89
2021/03/17 09:43:33;;;;;;;8.83;5.50;;;10.80;36.10;;;;;;5076983;28;20489;-89
2021/03/17 09:46:00;;;;;;;9.00;5.30;;;11.30;34.60;;;;;;5076268;28;20409;-88
2021/03/17 09:48:27;;;;;;;5.77;4.90;;;11.70;32.80;;;;;;5074047;28;20447;-89
2021/03/17 09:50:59;;;;;;;5.07;4.23;;;12.40;31.90;;;;;;5081104;28;20466;-89
2021/03/17 09:53:26;;;;;;;9.60;4.63;;;12.50;35.70;;;;;;5087301;28;20475;-89
2021/03/17 09:55:53;;;;;;;7.60;5.50;;;12.90;32.90;;;;;;5087335;28;20451;-88
2021/03/17 09:58:22;;;;;;;9.07;5.57;;;12.90;33.00;;;;;;5089180;28;20477;-88
2021/03/17 10:00:49;;;;;;;8.27;4.73;;;12.60;30.50;;;;;;5096685;28;20447;-87
2021/03/17 10:03:16;;;;;;;9.17;5.10;;;12.10;30.50;;;;;;5097454;28;20482;-87
2021/03/17 10:05:43;;;;;;;3.80;3.13;;;12.10;32.10;;;;;;5097044;28;20424;-89
2021/03/17 10:08:10;;;;;;;8.43;5.17;;;12.60;37.80;;;;;;5096667;28;20447;-87
2021/03/17 10:10:38;;;;;;;10.40;4.03;;;13.00;29.00;;;;;;5089753;28;20459;-87
2021/03/17 10:13:05;;;;;;;7.80;3.80;;;12.00;30.00;;;;;;5096775;28;20439;-88
2021/03/17 10:15:32;;;;;;;9.10;5.10;;;12.10;34.60;;;;;;5077713;28;20947;-88
2021/03/17 10:17:59;;;;;;;13.03;5.03;;;11.80;30.70;;;;;;5075233;28;20549;-88
2021/03/17 10:20:28;;;;;;;9.70;5.30;;;11.40;32.60;;;;;;5074214;28;20432;-88
2021/03/17 10:23:00;;;;;;;6.70;5.10;;;11.20;32.20;;;;;;5078091;28;20463;-89
2021/03/17 10:25:28;;;;;;;6.17;4.50;;;11.20;32.60;;;;;;5074528;28;20475;-89
2021/03/17 10:28:04;;;;;;;8.43;4.90;;;11.50;32.50;;;;;;5073247;28;20427;-88
2021/03/17 10:30:33;;;;;;;7.20;4.27;;;11.90;30.40;;;;;;5074629;28;20435;-88
2021/03/17 10:33:01;;;;;;;6.53;4.50;;;12.10;30.80;;;;;;5073686;28;20550;-88
2021/03/17 10:35:29;;;;;;;7.20;4.50;;;12.30;30.80;;;;;;5073746;28;20447;-88
2021/03/17 10:37:58;;;;;;;6.80;4.67;;;12.50;31.90;;;;;;5074294;28;20491;-88
2021/03/17 10:40:27;;;;;;;5.30;4.20;;;12.30;29.60;;;;;;5074362;28;20459;-88
2021/03/17 10:42:56;;;;;;;8.87;4.90;;;12.10;32.60;;;;;;5074268;28;20829;-89
2021/03/17 10:45:23;;;;;;;6.73;4.60;;;12.30;30.30;;;;;;5077384;28;20501;-88
2021/03/17 10:47:51;;;;;;;5.90;4.40;;;12.40;31.00;;;;;;5077342;28;20463;-89
2021/03/17 10:50:27;;;;;;;5.77;3.40;;;13.00;30.30;;;;;;5077239;28;20455;-90
2021/03/17 10:52:54;;;;;;;9.40;4.47;;;13.20;31.30;;;;;;5077481;28;20471;-89
2021/03/17 10:55:23;;;;;;;6.80;4.27;;;13.30;29.10;;;;;;5081331;28;20443;-89
2021/03/17 10:57:51;;;;;;;6.60;4.47;;;13.00;29.90;;;;;;5101075;28;20479;-86
2021/03/17 11:00:22;;;;;;;4.60;4.00;;;12.80;28.40;;;;;;5079907;28;20443;-89
2021/03/17 11:02:50;;;;;;;6.73;4.23;;;13.00;29.70;;;;;;5076709;28;20467;-89
2021/03/17 11:05:35;;;;;;;5.90;4.33;;;13.10;29.20;;;;;;5077890;28;20442;-89
2021/03/17 11:08:11;;;;;;;7.80;4.27;;;13.30;28.60;;;;;;5078671;28;20885;-89
2021/03/17 11:10:57;;;;;;;5.90;3.93;;;13.50;30.30;;;;;;5076989;28;20819;-89
2021/03/17 11:13:43;;;;;;;4.97;3.90;;;13.40;30.30;;;;;;5078273;28;20500;-89
2021/03/17 11:16:36;;;;;;;5.97;3.70;;;13.70;32.80;;;;;;5077846;28;20550;-89
2021/03/17 11:19:10;;;;;;;4.50;3.70;;;13.10;32.90;;;;;;5076862;28;20436;-88
2021/03/17 11:21:38;;;;;;;9.07;4.07;;;13.50;31.20;;;;;;5077297;28;20512;-88
2021/03/17 11:24:06;;;;;;;7.43;4.13;;;13.90;29.30;;;;;;5078122;28;20452;-89
2021/03/17 11:26:36;;;;;;;4.60;3.70;;;14.20;29.30;;;;;;5076859;28;20451;-89
2021/03/17 11:29:11;;;;;;;6.50;4.30;;;14.00;28.10;;;;;;5076806;28;20459;-89
2021/03/17 11:31:38;;;;;;;8.30;5.57;;;13.30;30.70;;;;;;5076515;28;20454;-88
2021/03/17 11:34:08;;;;;;;4.50;3.73;;;12.60;30.50;;;;;;5076478;28;20451;-89
2021/03/17 11:36:34;;;;;;;6.10;3.30;;;12.90;33.50;;;;;;5076679;28;20779;-89
2021/03/17 11:39:04;;;;;;;4.00;3.40;;;13.10;34.30;;;;;;5077300;28;20443;-89
2021/03/17 11:41:32;;;;;;;6.60;3.83;;;13.40;34.40;;;;;;5092338;28;20443;-88
2021/03/17 11:43:58;;;;;;;4.60;4.03;;;12.70;33.30;;;;;;5091728;28;20484;-89
2021/03/17 11:46:25;;;;;;;6.60;4.47;;;12.60;32.60;;;;;;5076205;28;20427;-89
2021/03/17 11:48:52;;;;;;;6.47;3.50;;;12.70;34.60;;;;;;5075887;28;20451;-89
2021/03/17 11:51:21;;;;;;;5.57;4.23;;;12.10;35.80;;;;;;5075735;28;20487;-89
2021/03/17 11:53:47;;;;;;;25.23;4.93;;;11.50;35.00;;;;;;5076914;28;20439;-89
2021/03/17 11:56:14;;;;;;;4.60;3.70;;;11.50;35.60;;;;;;5082705;28;20458;-89
2021/03/17 11:58:41;;;;;;;7.43;5.00;;;12.00;34.50;;;;;;5096471;28;20490;-90
2021/03/17 12:01:08;;;;;;;5.00;3.70;;;11.00;36.30;;;;;;5083917;28;20439;-89
2021/03/17 12:03:35;;;;;;;5.73;3.70;;;11.50;34.10;;;;;;5076338;28;20929;-89
2021/03/17 12:06:02;;;;;;;4.30;3.30;;;11.80;35.30;;;;;;5075387;28;20945;-89
2021/03/17 12:08:29;;;;;;;8.73;4.47;;;11.60;35.60;;;;;;5075503;28;20442;-89
2021/03/17 12:10:56;;;;;;;17.40;5.10;;;11.70;32.80;;;;;;5075694;28;20757;-89
2021/03/17 12:13:23;;;;;;;8.10;4.53;;;11.60;33.90;;;;;;5075456;28;20834;-89
2021/03/17 12:15:50;;;;;;;4.13;3.50;;;12.30;33.60;;;;;;5076852;28;20436;-89
2021/03/17 12:18:18;;;;;;;7.43;3.87;;;12.50;33.50;;;;;;5076907;28;20475;-89
2021/03/17 12:20:44;;;;;;;8.23;6.70;;;12.40;32.10;;;;;;5075558;28;20447;-89
2021/03/17 12:23:11;;;;;;;9.57;7.03;;;11.20;33.20;;;;;;5074855;28;20450;-89
2021/03/17 12:25:39;;;;;;;12.80;5.57;;;9.40;36.90;;;;;;5082352;28;20464;-88
2021/03/17 12:28:06;;;;;;;11.60;8.33;;;9.10;39.10;;;;;;5099394;28;20433;-87
2021/03/17 12:30:32;;;;;;;8.13;6.20;;;8.90;40.80;;;;;;5075670;28;20456;-89
2021/03/17 12:32:59;;;;;;;9.63;6.43;;;8.60;42.30;;;;;;5074831;28;20490;-89
2021/03/17 12:35:27;;;;;;;10.93;6.07;;;8.70;42.80;;;;;;5075286;28;20457;-89
2021/03/17 12:37:55;;;;;;;8.73;5.73;;;8.30;44.30;;;;;;5076404;28;20502;-89
2021/03/17 12:40:23;;;;;;;9.13;6.60;;;8.50;44.00;;;;;;5075381;28;20431;-89
2021/03/17 12:42:51;;;;;;;10.40;6.37;;;8.40;44.30;;;;;;5075594;28;20476;-89
2021/03/17 12:45:20;;;;;;;11.43;7.00;;;8.70;45.00;;;;;;5079666;28;20792;-89
2021/03/17 12:47:47;;;;;;;10.10;6.30;;;8.80;44.60;;;;;;5076475;28;20527;-89
2021/03/17 12:50:16;;;;;;;12.13;7.80;;;8.60;45.00;;;;;;5074858;28;20463;-89
2021/03/17 12:52:43;;;;;;;8.80;6.60;;;8.50;46.10;;;;;;5075986;28;20835;-89
2021/03/17 12:55:11;;;;;;;10.17;6.43;;;9.00;45.20;;;;;;5075733;28;20470;-89
2021/03/17 12:57:38;;;;;;;15.43;7.37;;;8.40;45.30;;;;;;5079004;28;20489;-89
2021/03/17 13:00:09;;;;;;;9.27;6.00;;;7.70;48.60;;;;;;5078632;28;20448;-88
2021/03/17 13:02:36;;;;;;;9.10;6.40;;;8.00;48.90;;;;;;5081756;28;20541;-87